Rutland, Massachusetts
Current Conditions -  °F | °C
As of 8:54 PM on Wednesday 26 Nov 2014 (Local Time) from KORH Reporting Station
Haze Haze  
Wind Chill: 17°   Ceiling: 600
Heat Index: 30°   Visibility: 1.5mi
Dew Point: 30°   Wind: 21mph
Humidity: 100%   Direction: 10°N
Pressure: 29.71"   Gusts: 30mph
Location:  42.36°N, 71.95°W
Report Text: KORH 270154Z AUTO 01018G26KT 1 1/2SM UP BR BKN006 OVC017 M01/M01 A2971 RMK AO2 PK WND 02031/0058 UPE0058B19FZRAB0058E19 SLP070 LAST AUGMENTED OBS P0013 I1000 T10111011
Loading
Personal Weather Stations






























Interactive Weather Map New forecast layout! Learn more

10-Day Weather Forecast

Advertisements
Track Severe Weather on mobile